createdAt,value
2023-04-08T00:00:56.064Z,100210.86
2023-04-08T00:01:58.030Z,100205.27
2023-04-08T00:03:01.535Z,100210.09
2023-04-08T00:04:03.845Z,100213.66
2023-04-08T00:05:06.671Z,100203.73
2023-04-08T00:06:09.160Z,100207.30
2023-04-08T00:07:11.116Z,100210.09
2023-04-08T00:08:13.182Z,100209.32
2023-04-08T00:09:15.086Z,100204.98
2023-04-08T00:10:17.589Z,100210.58
2023-04-08T00:11:20.027Z,100211.34
2023-04-08T00:12:22.071Z,100209.32
2023-04-08T00:13:25.725Z,100207.02
2023-04-08T00:14:27.623Z,100207.78
2023-04-08T00:15:29.554Z,100216.17
2023-04-08T00:16:32.253Z,100207.78
2023-04-08T00:17:34.987Z,100213.87
2023-04-08T00:18:37.263Z,100206.25
2023-04-08T00:19:39.225Z,100202.68
2023-04-08T00:20:42.887Z,100209.53
2023-04-08T00:21:45.200Z,100204.71
2023-04-08T00:22:47.152Z,100205.97
2023-04-08T00:23:49.106Z,100188.42
2023-04-08T00:24:51.052Z,100193.27
2023-04-08T00:25:53.990Z,100198.87
2023-04-08T00:26:56.096Z,100200.89
2023-04-08T00:27:58.434Z,100195.30
2023-04-08T00:29:00.378Z,100196.56
2023-04-08T00:30:03.631Z,100196.56
2023-04-08T00:31:05.687Z,100196.28
2023-04-08T00:32:07.687Z,100195.02
2023-04-08T00:33:09.672Z,100199.84
2023-04-08T00:34:12.648Z,100196.56
2023-04-08T00:35:14.755Z,100199.36
2023-04-08T00:36:17.984Z,100195.02
2023-04-08T00:37:19.930Z,100197.05
2023-04-08T00:38:21.871Z,100187.13
2023-04-08T00:39:23.752Z,100191.18
2023-04-08T00:40:26.104Z,100193.98
2023-04-08T00:41:28.074Z,100191.18
2023-04-08T00:42:30.947Z,100194.75
2023-04-08T00:43:33.777Z,100188.38
2023-04-08T00:44:35.818Z,100192.44
2023-04-08T00:45:37.868Z,100189.64
2023-04-08T00:46:40.041Z,100186.84
2023-04-08T00:47:42.503Z,100187.34
2023-04-08T00:48:44.684Z,100184.54
2023-04-08T00:49:46.613Z,100194.95
2023-04-08T00:50:48.844Z,100188.11
2023-04-08T00:51:50.998Z,100192.16
2023-04-08T00:52:53.081Z,100183.77
2023-04-08T00:53:55.091Z,100194.95
2023-04-08T00:54:57.056Z,100181.47
2023-04-08T00:55:59.215Z,100180.20
2023-04-08T00:57:01.835Z,100183.77
2023-04-08T00:58:04.272Z,100185.80
2023-04-08T00:59:07.428Z,100186.56
2023-04-08T01:00:12.423Z,100188.59
2023-04-08T01:01:20.752Z,100183.00
2023-04-08T01:02:30.348Z,100187.83
2023-04-08T01:03:57.232Z,100178.67
2023-04-08T01:05:05.971Z,100181.47
2023-04-08T01:07:37.418Z,100180.55
2023-04-08T01:08:39.611Z,100177.13
2023-04-08T01:09:45.522Z,100188.04
2023-04-08T01:10:49.141Z,100188.04
2023-04-08T01:11:51.343Z,100185.25
2023-04-08T01:12:57.835Z,100179.65
2023-04-08T01:14:00.335Z,100182.94
2023-04-08T01:15:04.725Z,100182.45
2023-04-08T01:17:18.271Z,100175.94
2023-04-08T01:18:20.593Z,100187.27
2023-04-08T01:19:28.544Z,100188.04
2023-04-08T01:20:31.488Z,100190.06
2023-04-08T01:21:34.537Z,100192.09
2023-04-08T01:23:03.033Z,100188.04
2023-04-08T01:24:10.922Z,100188.04
2023-04-08T01:25:18.744Z,100194.41
2023-04-08T01:26:23.379Z,100194.41
2023-04-08T01:27:28.102Z,100192.86
2023-04-08T01:28:30.252Z,100193.63
2023-04-08T01:29:34.600Z,100190.06
2023-04-08T01:30:40.712Z,100188.04
2023-04-08T01:31:43.826Z,100186.50
2023-04-08T01:32:46.027Z,100186.50
2023-04-08T01:33:48.099Z,100182.94
2023-04-08T01:34:50.403Z,100186.50
2023-04-08T01:35:52.893Z,100188.53
2023-04-08T01:36:56.770Z,100184.97
2023-04-08T01:37:59.545Z,100189.02
2023-04-08T01:39:01.698Z,100186.99
2023-04-08T01:40:05.726Z,100186.22
2023-04-08T01:41:09.363Z,100184.69
2023-04-08T01:42:11.346Z,100198.67
2023-04-08T01:43:14.924Z,100198.18
2023-04-08T01:44:16.924Z,100189.02
2023-04-08T01:45:21.015Z,100195.38
2023-04-08T01:46:23.579Z,100195.38
2023-04-08T01:47:25.712Z,100189.02
2023-04-08T01:48:28.093Z,100189.79
2023-04-08T01:49:30.135Z,100183.42
2023-04-08T01:50:32.212Z,100187.77
2023-04-08T01:51:34.204Z,100189.79
2023-04-08T01:52:37.251Z,100186.22
2023-04-08T01:53:39.248Z,100193.84
2023-04-08T01:54:41.200Z,100181.89
2023-04-08T01:55:43.152Z,100189.52
2023-04-08T01:56:47.072Z,100192.31
2023-04-08T01:59:00.725Z,100186.56
2023-04-08T02:00:05.361Z,100192.80
2023-04-08T02:01:11.921Z,100182.13
2023-04-08T02:02:14.578Z,100189.27
2023-04-08T02:03:18.142Z,100184.92
2023-04-08T02:04:21.533Z,100193.31
2023-04-08T02:05:24.201Z,100198.14
2023-04-08T02:06:27.888Z,100191.78
2023-04-08T02:07:29.943Z,100195.34
2023-04-08T02:08:34.472Z,100197.38
2023-04-08T02:09:36.470Z,100193.80
2023-04-08T02:10:38.713Z,100197.38
2023-04-08T02:11:40.766Z,100196.11
2023-04-08T02:12:43.498Z,100197.38
2023-04-08T02:13:45.605Z,100198.14
2023-04-08T02:14:47.640Z,100193.80
2023-04-08T02:15:52.455Z,100198.14
2023-04-08T02:17:13.466Z,100200.16
2023-04-08T02:18:16.757Z,100193.31
2023-04-08T02:19:31.738Z,100193.31
2023-04-08T02:20:40.501Z,100196.11
2023-04-08T02:21:51.474Z,100193.31
2023-04-08T02:23:11.382Z,100197.65
2023-04-08T02:24:13.794Z,100201.70
2023-04-08T02:25:17.580Z,100192.06
2023-04-08T02:26:20.849Z,100190.00
2023-04-08T02:27:22.918Z,100185.70
2023-04-08T02:28:26.413Z,100182.90
2023-04-08T02:29:29.536Z,100182.13
2023-04-08T02:30:32.281Z,100188.98
2023-04-08T02:31:34.320Z,100184.16
2023-04-08T02:32:37.222Z,100186.19
2023-04-08T02:33:39.654Z,100186.19
2023-04-08T02:34:41.603Z,100181.85
2023-04-08T02:35:43.637Z,100185.42
2023-04-08T02:36:46.033Z,100188.21
2023-04-08T02:37:48.555Z,100197.38
2023-04-08T02:38:50.775Z,100191.02
2023-04-08T02:39:53.274Z,100191.78
2023-04-08T02:40:55.605Z,100196.87
2023-04-08T02:41:58.173Z,100196.36
2023-04-08T02:43:00.131Z,100191.05
2023-04-08T02:44:02.153Z,100192.09
2023-04-08T02:45:07.212Z,100196.70
2023-04-08T02:46:10.189Z,100198.52
2023-04-08T02:47:12.552Z,100198.80
2023-04-08T02:48:14.513Z,100202.64
2023-04-08T02:49:16.656Z,100203.17
2023-04-08T02:50:18.993Z,100197.86
2023-04-08T02:51:20.941Z,100202.47
2023-04-08T02:52:23.007Z,100197.15
2023-04-08T02:53:25.450Z,100197.70
2023-04-08T02:54:27.928Z,100196.72
2023-04-08T02:55:30.273Z,100196.50
2023-04-08T02:56:32.529Z,100195.48
2023-04-08T02:57:34.888Z,100200.10
2023-04-08T02:58:36.841Z,100205.20
2023-04-08T02:59:38.805Z,100189.45
2023-04-08T03:00:41.380Z,100196.09
2023-04-08T03:01:43.428Z,100199.94
2023-04-08T03:02:45.465Z,100196.16
2023-04-08T03:03:47.867Z,100197.17
2023-04-08T03:04:50.176Z,100192.61
2023-04-08T03:05:52.529Z,100197.72
2023-04-08T03:06:55.459Z,100196.73
2023-04-08T03:07:58.630Z,100202.63
2023-04-08T03:09:00.610Z,100198.08
2023-04-08T03:10:02.916Z,100211.58
2023-04-08T03:11:05.392Z,100205.48
2023-04-08T03:12:07.344Z,100202.19
2023-04-08T03:13:09.332Z,100201.70
2023-04-08T03:14:11.264Z,100208.06
2023-04-08T03:15:13.212Z,100206.28
2023-04-08T03:16:15.604Z,100207.05
2023-04-08T03:17:17.721Z,100210.39
2023-04-08T03:18:19.682Z,100211.16
2023-04-08T03:19:21.622Z,100209.40
2023-04-08T03:20:24.202Z,100205.34
2023-04-08T03:21:26.140Z,100208.41
2023-04-08T03:22:28.099Z,100210.71
2023-04-08T03:23:30.353Z,100196.98
2023-04-08T03:24:32.302Z,100204.13
2023-04-08T03:25:34.232Z,100201.32
2023-04-08T03:26:36.454Z,100206.42
2023-04-08T03:27:38.354Z,100201.56
2023-04-08T03:28:40.310Z,100207.93
2023-04-08T03:29:42.886Z,100205.13
2023-04-08T03:30:45.613Z,100197.50
2023-04-08T03:31:47.739Z,100199.03
2023-04-08T03:32:49.952Z,100189.37
2023-04-08T03:33:51.986Z,100204.14
2023-04-08T03:34:54.436Z,100191.17
2023-04-08T03:35:56.373Z,100207.48
2023-04-08T03:36:58.842Z,100196.28
2023-04-08T03:38:00.898Z,100197.81
2023-04-08T03:39:03.118Z,100192.98
2023-04-08T03:40:07.688Z,100198.58
2023-04-08T03:41:09.734Z,100200.12
2023-04-08T03:42:11.680Z,100202.42
2023-04-08T03:43:13.761Z,100205.22
2023-04-08T03:44:15.725Z,100205.22
2023-04-08T03:45:18.664Z,100210.05
2023-04-08T03:46:20.701Z,100203.19
2023-04-08T03:47:23.062Z,100205.99
2023-04-08T03:48:25.616Z,100205.99
2023-04-08T03:49:27.556Z,100205.99
2023-04-08T03:50:29.833Z,100205.22
2023-04-08T03:51:31.754Z,100203.96
2023-04-08T03:52:33.727Z,100203.46
2023-04-08T03:53:35.648Z,100210.59
2023-04-08T03:54:37.626Z,100207.03
2023-04-08T03:55:39.562Z,100208.56
2023-04-08T03:56:41.868Z,100212.14
2023-04-08T03:57:44.445Z,100210.10
2023-04-08T03:58:46.517Z,100210.88
2023-04-08T03:59:50.571Z,100211.64
2023-04-08T04:00:53.279Z,100212.41
2023-04-08T04:01:55.330Z,100223.85
2023-04-08T04:02:58.256Z,100216.98
2023-04-08T04:04:00.697Z,100219.78
2023-04-08T04:05:03.547Z,100216.98
2023-04-08T04:06:05.934Z,100221.33
2023-04-08T04:07:08.679Z,100212.92
2023-04-08T04:08:10.649Z,100220.06
2023-04-08T04:09:12.594Z,100212.42
2023-04-08T04:10:16.260Z,100211.16
2023-04-08T04:11:18.233Z,100209.89
2023-04-08T04:12:20.169Z,100217.03
2023-04-08T04:13:22.152Z,100210.92
2023-04-08T04:14:24.101Z,100217.30
2023-04-08T04:15:26.094Z,100221.91
2023-04-08T04:16:29.102Z,100221.41
2023-04-08T04:17:31.997Z,100223.71
2023-04-08T04:18:34.747Z,100224.48
2023-04-08T04:19:37.063Z,100218.38
2023-04-08T04:21:57.154Z,100225.84
2023-04-08T04:22:59.110Z,100221.95
2023-04-08T04:24:01.080Z,100222.23
2023-04-08T04:25:03.436Z,100229.64
2023-04-08T04:26:09.325Z,100227.88
2023-04-08T04:27:11.318Z,100223.80
2023-04-08T04:28:13.842Z,100236.05
2023-04-08T04:29:16.251Z,100228.41
2023-04-08T04:30:18.951Z,100231.48
2023-04-08T04:31:24.810Z,100234.52
2023-04-08T04:32:27.829Z,100234.79
2023-04-08T04:33:30.641Z,100230.98
2023-04-08T04:34:33.326Z,100243.73
2023-04-08T04:35:35.297Z,100232.02
2023-04-08T04:36:37.716Z,100237.13
2023-04-08T04:37:40.197Z,100233.82
2023-04-08T04:38:42.151Z,100233.35
2023-04-08T04:39:45.308Z,100233.63
2023-04-08T04:40:47.529Z,100234.66
2023-04-08T04:41:50.121Z,100233.63
2023-04-08T04:42:51.967Z,100235.42
2023-04-08T04:43:53.885Z,100241.83
2023-04-08T04:44:55.967Z,100242.62
2023-04-08T04:45:57.940Z,100235.75
2023-04-08T04:47:00.386Z,100241.63
2023-04-08T04:48:02.646Z,100243.66
2023-04-08T04:49:05.250Z,100249.00
2023-04-08T04:50:10.009Z,100252.05
2023-04-08T04:51:12.657Z,100250.78
2023-04-08T04:52:15.117Z,100247.44
2023-04-08T04:53:17.096Z,100250.98
2023-04-08T04:54:19.334Z,100253.25
2023-04-08T04:55:21.375Z,100258.85
2023-04-08T04:56:23.693Z,100259.05
2023-04-08T04:57:25.632Z,100247.80
2023-04-08T04:58:28.942Z,100250.07
2023-04-08T04:59:31.055Z,100252.87
2023-04-08T05:00:33.354Z,100256.66
2023-04-08T05:01:36.440Z,100264.53
2023-04-08T05:02:38.741Z,100259.92
2023-04-08T05:03:40.947Z,100267.79
2023-04-08T05:04:42.875Z,100265.24
2023-04-08T05:05:44.944Z,100269.04
2023-04-08T05:06:48.157Z,100268.77
2023-04-08T05:07:50.244Z,100266.20
2023-04-08T05:08:52.514Z,100271.52
2023-04-08T05:09:54.490Z,100260.55
2023-04-08T05:10:57.638Z,100261.81
2023-04-08T05:11:59.972Z,100259.50
2023-04-08T05:13:02.479Z,100256.95
2023-04-08T05:14:04.534Z,100263.05
2023-04-08T05:15:07.238Z,100263.55
2023-04-08T05:16:10.966Z,100258.44
2023-04-08T05:17:13.190Z,100264.55
2023-04-08T05:18:15.129Z,100269.87
2023-04-08T05:19:17.081Z,100266.02
2023-04-08T05:20:19.995Z,100270.09
2023-04-08T05:21:22.482Z,100264.98
2023-04-08T05:22:24.522Z,100263.94
2023-04-08T05:23:27.011Z,100266.50
2023-04-08T05:24:29.457Z,100266.50
2023-04-08T05:25:32.004Z,100262.93
2023-04-08T05:26:34.072Z,100260.90
2023-04-08T05:27:36.524Z,100266.50
2023-04-08T05:28:38.778Z,100267.77
2023-04-08T05:29:41.247Z,100258.59
2023-04-08T05:30:50.183Z,100260.63
2023-04-08T05:31:52.880Z,100262.66
2023-04-08T05:32:58.468Z,100263.42
2023-04-08T05:34:00.126Z,100265.45
2023-04-08T05:35:03.209Z,100264.69
2023-04-08T05:36:06.001Z,100269.02
2023-04-08T05:37:08.457Z,100268.25
2023-04-08T05:38:10.546Z,100267.48
2023-04-08T05:39:12.376Z,100270.28
2023-04-08T05:40:15.116Z,100267.48
2023-04-08T05:41:17.065Z,100265.95
2023-04-08T05:42:19.019Z,100268.75
2023-04-08T05:43:21.278Z,100263.15
2023-04-08T05:44:23.220Z,100268.75
2023-04-08T05:45:25.282Z,100271.55
2023-04-08T05:46:27.682Z,100265.95
2023-04-08T05:47:29.732Z,100266.72
2023-04-08T05:48:32.778Z,100265.45
2023-04-08T05:49:34.778Z,100262.66
2023-04-08T05:50:37.129Z,100260.90
2023-04-08T05:51:39.061Z,100264.96
2023-04-08T05:52:44.236Z,100270.06
2023-04-08T05:53:46.644Z,100269.55
2023-04-08T05:54:49.103Z,100269.55
2023-04-08T05:55:51.031Z,100275.14
2023-04-08T05:56:53.096Z,100275.14
2023-04-08T05:57:55.017Z,100268.77
2023-04-08T05:58:57.478Z,100274.37
2023-04-08T05:59:59.423Z,100272.34
2023-04-08T06:01:01.785Z,100269.55
2023-04-08T06:02:03.820Z,100272.62
2023-04-08T06:03:06.788Z,100278.22
2023-04-08T06:04:09.408Z,100274.16
2023-04-08T06:05:12.117Z,100276.95
2023-04-08T06:06:14.690Z,100268.06
2023-04-08T06:07:17.131Z,100278.49
2023-04-08T06:08:19.349Z,100267.56
2023-04-08T06:09:21.179Z,100277.01
2023-04-08T06:10:23.147Z,100277.01
2023-04-08T06:11:25.683Z,100276.52
2023-04-08T06:12:28.671Z,100271.67
2023-04-08T06:13:31.854Z,100276.78
2023-04-08T06:14:34.529Z,100280.36
2023-04-08T06:15:36.836Z,100272.72
2023-04-08T06:16:38.939Z,100275.03
2023-04-08T06:17:40.954Z,100279.37
2023-04-08T06:18:43.314Z,100274.03
2023-04-08T06:19:45.915Z,100272.74
2023-04-08T06:20:49.084Z,100271.48
2023-04-08T06:21:51.843Z,100276.58
2023-04-08T06:22:54.347Z,100274.55
2023-04-08T06:23:56.908Z,100277.63
2023-04-08T06:24:58.887Z,100276.36
2023-04-08T06:26:00.920Z,100275.86
2023-04-08T06:27:02.971Z,100288.61
2023-04-08T06:28:05.133Z,100282.51
2023-04-08T06:29:07.513Z,100286.84
2023-04-08T06:30:11.491Z,100282.78
2023-04-08T06:31:13.695Z,100282.28
2023-04-08T06:32:16.793Z,100286.62
2023-04-08T06:33:18.794Z,100284.09
2023-04-08T06:34:21.383Z,100283.33
2023-04-08T06:35:24.244Z,100284.36
2023-04-08T06:36:27.804Z,100289.44
2023-04-08T06:37:30.374Z,100294.28
2023-04-08T06:38:32.805Z,100293.78
2023-04-08T06:39:34.776Z,100293.02
2023-04-08T06:41:49.413Z,100297.44
2023-04-08T06:42:56.298Z,100296.86
2023-04-08T06:44:12.372Z,100300.42
2023-04-08T06:45:14.351Z,100299.92
2023-04-08T06:46:16.839Z,100299.43
2023-04-08T06:47:19.130Z,100305.03
2023-04-08T06:48:21.086Z,100301.73
2023-04-08T06:49:23.049Z,100304.05
2023-04-08T06:50:26.121Z,100302.01
2023-04-08T06:51:28.106Z,100303.31
2023-04-08T06:52:30.240Z,100309.69
2023-04-08T06:53:32.208Z,100303.59
2023-04-08T06:54:34.267Z,100300.26
2023-04-08T06:55:36.355Z,100304.59
2023-04-08T06:56:38.814Z,100298.49
2023-04-08T06:57:41.360Z,100302.83
2023-04-08T06:58:43.291Z,100298.77
2023-04-08T06:59:45.366Z,100300.30
2023-04-08T07:00:47.617Z,100297.00
2023-04-08T07:01:50.655Z,100305.41
2023-04-08T07:02:53.206Z,100300.84
2023-04-08T07:03:55.777Z,100302.38
2023-04-08T07:04:58.034Z,100301.11
2023-04-08T07:05:59.976Z,100303.44
2023-04-08T07:07:01.917Z,100304.48
2023-04-08T07:08:05.989Z,100297.11
2023-04-08T07:09:08.746Z,100308.06
2023-04-08T07:10:12.945Z,100307.83
2023-04-08T07:11:15.065Z,100304.03
2023-04-08T07:12:17.716Z,100309.91
2023-04-08T07:13:19.680Z,100312.98
2023-04-08T07:14:22.137Z,100306.87
2023-04-08T07:15:24.087Z,100298.72
2023-04-08T07:16:26.727Z,100304.59
2023-04-08T07:17:28.643Z,100307.64
2023-04-08T07:18:30.834Z,100304.34
2023-04-08T07:19:32.610Z,100311.75
2023-04-08T07:20:34.899Z,100304.37
2023-04-08T07:21:37.747Z,100303.87
2023-04-08T07:22:40.176Z,100311.78
2023-04-08T07:23:42.134Z,100314.09
2023-04-08T07:24:45.131Z,100317.16
2023-04-08T07:25:47.227Z,100317.42
2023-04-08T07:26:49.872Z,100311.31
2023-04-08T07:27:52.764Z,100311.55
2023-04-08T07:28:55.127Z,100311.81
2023-04-08T07:29:57.661Z,100315.66
2023-04-08T07:32:22.756Z,100312.91
2023-04-08T07:33:24.707Z,100315.45
2023-04-08T07:34:27.077Z,100315.72
2023-04-08T07:35:29.291Z,100314.95
2023-04-08T07:36:32.211Z,100324.39
2023-04-08T07:37:34.165Z,100320.84
2023-04-08T07:38:36.112Z,100319.34
2023-04-08T07:39:38.155Z,100314.98
2023-04-08T07:40:40.949Z,100319.09
2023-04-08T07:41:43.516Z,100321.15
2023-04-08T07:42:45.576Z,100316.85
2023-04-08T07:43:47.624Z,100310.45
2023-04-08T07:44:49.691Z,100315.08
2023-04-08T07:45:52.111Z,100314.59
2023-04-08T07:46:54.594Z,100316.88
2023-04-08T07:47:56.948Z,100317.14
2023-04-08T07:48:59.304Z,100313.07
2023-04-08T07:50:01.909Z,100316.62
2023-04-08T07:51:08.030Z,100315.86
2023-04-08T07:52:09.706Z,100321.23
2023-04-08T07:53:11.711Z,100306.93
2023-04-08T07:54:14.056Z,100316.36
2023-04-08T07:55:16.883Z,100313.29
2023-04-08T07:56:19.873Z,100306.39
2023-04-08T07:57:21.844Z,100304.09
2023-04-08T07:58:24.254Z,100317.89
2023-04-08T07:59:26.957Z,100312.78
2023-04-08T08:00:29.696Z,100309.69
2023-04-08T08:01:32.387Z,100315.83
2023-04-08T08:02:35.115Z,100310.23
2023-04-08T08:03:37.454Z,100305.36
2023-04-08T08:04:39.700Z,100311.72
2023-04-08T08:05:42.542Z,100312.23
2023-04-08T08:06:45.728Z,100309.16
2023-04-08T08:07:47.628Z,100307.61
2023-04-08T08:08:50.759Z,100313.97
2023-04-08T08:09:52.765Z,100316.01
2023-04-08T08:10:55.390Z,100311.90
2023-04-08T08:11:57.357Z,100310.58
2023-04-08T08:12:59.300Z,100315.67
2023-04-08T08:14:01.290Z,100312.33
2023-04-08T08:15:04.823Z,100301.78
2023-04-08T08:16:08.019Z,100299.97
2023-04-08T08:17:10.580Z,100308.13
2023-04-08T08:18:12.537Z,100304.00
2023-04-08T08:19:14.541Z,100309.09
2023-04-08T08:20:17.672Z,100306.45
2023-04-08T08:21:20.507Z,100305.66
2023-04-08T08:22:23.624Z,100316.38
2023-04-08T08:23:25.964Z,100311.70
2023-04-08T08:24:28.007Z,100307.56
2023-04-08T08:25:29.954Z,100311.87
2023-04-08T08:26:34.822Z,100308.47
2023-04-08T08:27:36.881Z,100302.80
2023-04-08T08:28:39.806Z,100300.70
2023-04-08T08:29:41.804Z,100306.30
2023-04-08T08:30:43.840Z,100297.80
2023-04-08T08:31:45.861Z,100304.16
2023-04-08T08:32:47.971Z,100293.57
2023-04-08T08:33:50.167Z,100300.69
2023-04-08T08:34:52.884Z,100312.70
2023-04-08T08:35:55.236Z,100306.20
2023-04-08T08:36:58.468Z,100302.57
2023-04-08T08:38:00.511Z,100299.17
2023-04-08T08:39:02.674Z,100300.41
2023-04-08T08:40:06.436Z,100300.85
2023-04-08T08:41:09.765Z,100302.86
2023-04-08T08:42:27.745Z,100306.92
2023-04-08T08:43:31.170Z,100300.98
2023-04-08T08:44:34.174Z,100300.12
2023-04-08T08:45:40.306Z,100297.01
2023-04-08T08:46:44.479Z,100303.16
2023-04-08T08:47:48.997Z,100301.33
2023-04-08T08:48:51.451Z,100295.91
2023-04-08T08:49:53.324Z,100300.50
2023-04-08T08:50:57.377Z,100301.27
2023-04-08T08:51:59.444Z,100298.67
2023-04-08T08:53:01.595Z,100296.06
2023-04-08T08:54:04.677Z,100299.65
2023-04-08T08:55:21.802Z,100299.12
2023-04-08T08:57:18.999Z,100299.58
2023-04-08T08:58:20.962Z,100300.58
2023-04-08T08:59:22.933Z,100298.52
2023-04-08T09:01:46.123Z,100295.23
2023-04-08T09:02:48.875Z,100303.34
2023-04-08T09:05:04.715Z,100292.64
2023-04-08T09:07:11.945Z,100308.13
2023-04-08T09:08:27.214Z,100304.77
2023-04-08T09:09:29.205Z,100302.17
2023-04-08T09:10:32.037Z,100308.83
2023-04-08T09:11:34.029Z,100302.88
2023-04-08T09:12:36.434Z,100298.22
2023-04-08T09:13:38.421Z,100296.39
2023-04-08T09:14:42.274Z,100290.97
2023-04-08T09:17:14.102Z,100290.94
2023-04-08T09:18:22.464Z,100293.61
2023-04-08T09:19:25.096Z,100290.25
2023-04-08T09:20:27.776Z,100294.08
2023-04-08T09:21:31.137Z,100292.77
2023-04-08T09:23:54.416Z,100301.33
2023-04-08T09:24:59.676Z,100303.21
2023-04-08T09:26:11.346Z,100294.73
2023-04-08T09:27:13.817Z,100291.37
2023-04-08T09:28:20.653Z,100298.32
2023-04-08T09:29:27.599Z,100296.80
2023-04-08T09:30:30.598Z,100296.80
2023-04-08T09:31:37.633Z,100298.86
2023-04-08T09:34:11.384Z,100302.09
2023-04-08T09:35:17.784Z,100288.88
2023-04-08T09:36:26.407Z,100297.13
2023-04-08T09:37:32.718Z,100306.38
2023-04-08T09:38:34.722Z,100299.19
2023-04-08T09:39:38.730Z,100306.14
2023-04-08T09:40:41.871Z,100299.50
2023-04-08T09:41:44.907Z,100298.50
2023-04-08T09:42:48.780Z,100304.45
2023-04-08T09:43:55.359Z,100309.88
2023-04-08T09:44:57.471Z,100298.88
2023-04-08T09:45:59.518Z,100299.44
2023-04-08T09:48:20.056Z,100293.69
2023-04-08T09:49:28.785Z,100300.28
2023-04-08T09:50:31.970Z,100294.39
2023-04-08T09:51:49.845Z,100294.16
2023-04-08T09:52:55.024Z,100300.34
2023-04-08T09:54:03.525Z,100299.35
2023-04-08T09:55:13.184Z,100306.30
2023-04-08T09:56:16.812Z,100311.48
2023-04-08T09:57:34.021Z,100308.22
2023-04-08T10:00:18.544Z,100312.25
2023-04-08T10:01:30.174Z,100310.11
2023-04-08T10:02:34.296Z,100313.47
2023-04-08T10:03:40.830Z,100316.06
2023-04-08T10:04:45.240Z,100313.77
2023-04-08T10:05:47.147Z,100309.97
2023-04-08T10:06:53.362Z,100306.16
2023-04-08T10:07:55.652Z,100317.21
2023-04-08T10:08:57.710Z,100314.68
2023-04-08T10:09:59.733Z,100320.33
2023-04-08T10:11:04.061Z,100321.39
2023-04-08T10:12:06.038Z,100316.00
2023-04-08T10:13:07.825Z,100312.19
2023-04-08T10:14:09.758Z,100307.06
2023-04-08T10:15:30.827Z,100301.98
2023-04-08T10:16:33.445Z,100316.62
2023-04-08T10:17:35.491Z,100317.91
2023-04-08T10:18:37.616Z,100315.63
2023-04-08T10:19:39.468Z,100306.16
2023-04-08T10:20:42.113Z,100316.44
2023-04-08T10:21:44.406Z,100309.27
2023-04-08T10:22:46.569Z,100312.62
2023-04-08T10:25:19.328Z,100315.63
2023-04-08T10:28:16.914Z,100308.97
2023-04-08T10:29:22.758Z,100312.46
2023-04-08T10:30:31.893Z,100307.34
2023-04-08T10:33:31.627Z,100315.81
2023-04-08T10:34:33.778Z,100320.45
2023-04-08T10:35:36.116Z,100314.05
2023-04-08T10:36:39.075Z,100316.62
2023-04-08T10:38:18.419Z,100315.63
2023-04-08T10:39:20.620Z,100313.33
2023-04-08T10:40:22.665Z,100314.14
2023-04-08T10:41:25.078Z,100315.99
2023-04-08T10:42:27.711Z,100310.88
2023-04-08T10:43:33.891Z,100309.88
2023-04-08T10:44:36.381Z,100313.22
2023-04-08T10:45:39.039Z,100312.22
2023-04-08T10:46:41.676Z,100310.45
2023-04-08T10:47:44.339Z,100310.20
2023-04-08T10:48:50.534Z,100309.97
2023-04-08T10:49:53.655Z,100316.13
2023-04-08T10:51:01.252Z,100306.14
2023-04-08T10:52:08.846Z,100311.25
2023-04-08T10:53:11.300Z,100310.48
2023-04-08T10:54:15.961Z,100307.67
2023-04-08T10:55:27.050Z,100300.73
2023-04-08T10:56:29.272Z,100300.21
2023-04-08T10:57:36.006Z,100304.56
2023-04-08T11:00:11.243Z,100299.59
2023-04-08T11:01:14.134Z,100299.16
2023-04-08T11:02:16.720Z,100299.16
2023-04-08T11:03:21.145Z,100298.40
2023-04-08T11:04:31.978Z,100301.22
2023-04-08T11:05:36.766Z,100292.52
2023-04-08T11:06:38.918Z,100288.17
2023-04-08T11:07:43.224Z,100290.22
2023-04-08T11:08:45.605Z,100283.81
2023-04-08T11:09:49.954Z,100284.58
2023-04-08T11:11:13.613Z,100294.33
2023-04-08T11:12:16.243Z,100293.57
2023-04-08T11:13:18.282Z,100288.69
2023-04-08T11:14:20.226Z,100286.39
2023-04-08T11:15:23.930Z,100284.13
2023-04-08T11:16:27.664Z,100286.95
2023-04-08T11:17:30.704Z,100286.71
2023-04-08T11:18:40.639Z,100285.19
2023-04-08T11:19:44.048Z,100287.23
2023-04-08T11:20:46.227Z,100286.47
2023-04-08T11:21:48.278Z,100293.41
2023-04-08T11:22:50.465Z,100285.47
2023-04-08T11:23:54.057Z,100276.77
2023-04-08T11:24:56.823Z,100293.45
2023-04-08T11:25:58.881Z,100289.62
2023-04-08T11:27:01.551Z,100276.81
2023-04-08T11:28:04.205Z,100273.72
2023-04-08T11:29:06.204Z,100279.36
2023-04-08T11:30:10.416Z,100287.06
2023-04-08T11:31:14.356Z,100272.72
2023-04-08T11:32:17.047Z,100276.30
2023-04-08T11:33:19.031Z,100273.48
2023-04-08T11:34:22.593Z,100269.90
2023-04-08T11:35:32.345Z,100277.06
2023-04-08T11:36:34.526Z,100271.42
2023-04-08T11:37:40.827Z,100265.27
2023-04-08T11:38:45.234Z,100271.70
2023-04-08T11:39:47.299Z,100273.23
2023-04-08T11:42:29.013Z,100258.27
2023-04-08T11:43:30.908Z,100256.31
2023-04-08T11:44:32.893Z,100261.95
2023-04-08T11:45:39.875Z,100257.08
2023-04-08T11:46:45.049Z,100255.02
2023-04-08T11:47:49.464Z,100249.38
2023-04-08T11:49:03.104Z,100246.56
2023-04-08T11:50:07.161Z,100252.97
2023-04-08T11:51:09.164Z,100255.02
2023-04-08T11:52:12.960Z,100252.20
2023-04-08T11:53:22.060Z,100250.91
2023-04-08T11:54:30.941Z,100247.33
2023-04-08T11:55:34.258Z,100250.67
2023-04-08T11:56:49.788Z,100243.23
2023-04-08T11:59:20.307Z,100249.63
2023-04-08T12:00:23.122Z,100248.95
2023-04-08T12:01:26.349Z,100248.70
2023-04-08T12:02:29.632Z,100242.06
2023-04-08T12:03:31.776Z,100250.28
2023-04-08T12:04:34.563Z,100231.84
2023-04-08T12:05:37.070Z,100243.87
2023-04-08T12:06:42.485Z,100240.30
2023-04-08T12:07:45.300Z,100239.53
2023-04-08T12:08:47.261Z,100231.84
2023-04-08T12:09:49.755Z,100234.66
2023-04-08T12:10:52.306Z,100228.78
2023-04-08T12:11:54.196Z,100223.91
2023-04-08T12:12:56.131Z,100230.06
2023-04-08T12:13:58.079Z,100229.06
2023-04-08T12:15:00.053Z,100231.88
2023-04-08T12:16:02.779Z,100221.89
2023-04-08T12:17:05.051Z,100235.02
2023-04-08T12:18:07.379Z,100223.73
2023-04-08T12:19:09.338Z,100228.61
2023-04-08T12:20:11.996Z,100231.43
2023-04-08T12:21:14.000Z,100239.88
2023-04-08T12:22:16.045Z,100235.53
2023-04-08T12:23:18.005Z,100230.66
2023-04-08T12:24:20.477Z,100231.43
2023-04-08T12:25:23.581Z,100230.14
2023-04-08T12:26:28.742Z,100222.45
2023-04-08T12:28:50.958Z,100226.97
2023-04-08T12:29:53.454Z,100231.19
2023-04-08T12:30:56.307Z,100236.58
2023-04-08T12:31:59.367Z,100230.70
2023-04-08T12:33:01.910Z,100235.34
2023-04-08T12:34:04.617Z,100233.56